Flight Track Log - Related Links

Times and Time Zones

All times are in EDT time to prevent confusion due to time zone crossing. See the N17NM flight status page for this flight to view local times or setup timezone preferences in your user account.

Time Position Orientation Groundspeed Altitude Reporting Facility
EDT Latitude Longitude Course Direction KTS MPH feet Rate Location/Type
Wed 11:27:39 AM 36.7375 -108.2519 142° Southeast 164 189 6,200  Level Denver Center
Wed 11:28:41 AM 36.6983 -108.2403 167° South 177 204 7,600 1,452 Climbing Denver Center
Wed 11:29:43 AM 36.6525 -108.1986 144° Southeast 183 211 9,200 1,597 Climbing Denver Center
Wed 11:30:45 AM 36.6167 -108.1617 140° Southeast 179 206 10,900 1,452 Climbing Denver Center
Wed 11:31:47 AM 36.5739 -108.1181 141° Southeast 177 204 12,200 1,258 Climbing Denver Center
Wed 11:32:00 AM 36.4324 -107.9289 142° Southeast  Level Estimated
Wed 11:32:49 AM 36.5342 -108.0781 141° Southeast 183 211 13,500  Level Denver Center
Wed 11:33:00 AM 36.3882 -107.8861 142° Southeast  Level Estimated
Wed 11:33:51 AM 36.4947 -108.0383 141° Southeast 187 215 14,700  Level Denver Center
Wed 11:34:53 AM 36.4453 -107.9889 141° Southeast 194 223 15,500 871 Climbing Denver Center
Wed 11:35:55 AM 36.3992 -107.9414 140° Southeast 212 244 16,500 823 Climbing Denver Center
Wed 11:36:57 AM 36.3461 -107.8892 142° Southeast 215 247 17,200 727 Climbing Denver Center
Wed 11:38:07 AM 36.2900 -107.8361 143° Southeast 225 259 18,100 773 Climbing Albuquerque Center
Wed 11:39:09 AM 36.2378 -107.7836 141° Southeast 220 253 18,900 484 Climbing Albuquerque Center
Wed 11:40:11 AM 36.1889 -107.7342 141° Southeast 228 262 19,100 97 Climbing Albuquerque Center
Wed 11:41:13 AM 36.1361 -107.6828 142° Southeast 244 281 19,100 -48 Level Albuquerque Center
Wed 11:42:15 AM 36.0739 -107.6208 141° Southeast 255 293 19,000 -48 Descending Albuquerque Center
Wed 11:43:17 AM 36.0197 -107.5689 142° Southeast 255 293 19,000  Level Albuquerque Center
Wed 11:44:19 AM 35.9608 -107.5097 141° Southeast 247 284 19,000  Level Albuquerque Center
Wed 11:45:21 AM 35.9094 -107.4583 141° Southeast 248 285 19,000 48 Level Albuquerque Center
Wed 11:46:23 AM 35.8492 -107.3997 142° Southeast 247 284 19,100  Climbing Albuquerque Center
Wed 11:47:25 AM 35.7983 -107.3500 142° Southeast 244 281 19,000  Descending Albuquerque Center
Wed 11:48:27 AM 35.7403 -107.2908 140° Southeast 242 278 19,100  Climbing Albuquerque Center
Wed 11:49:29 AM 35.6911 -107.2439 142° Southeast 237 273 19,000 -484 Descending Albuquerque Center
Wed 11:50:31 AM 35.6308 -107.1875 143° Southeast 240 276 18,100 -823 Descending Albuquerque Center
Wed 11:51:33 AM 35.5875 -107.1425 140° Southeast 231 266 17,300 -737 Descending Albuquerque Center
Wed 11:52:25 AM 35.5419 -107.0964 141° Southeast 214 246 16,700 -850 Descending Albuquerque Center
Wed 11:53:26 AM 35.4967 -107.0558 144° Southeast 199 229 15,700 -984 Descending Albuquerque Center
Wed 11:54:27 AM 35.4536 -107.0147 142° Southeast 198 228 14,700 -836 Descending Albuquerque Center
Wed 11:55:28 AM 35.4069 -106.9667 140° Southeast 203 234 14,000 -738 Descending Albuquerque Center
Wed 11:56:29 AM 35.3633 -106.9231 141° Southeast 203 234 13,200 -496 Descending Albuquerque Center
Wed 11:57:29 AM 35.3164 -106.8858 147° Southeast 209 241 13,000 -237 Descending Albuquerque Center
Wed 11:57:45 AM 35.3092 -106.8781 139° Southeast 202 232 12,900 -982 Descending Albuquerque Center
Wed 11:58:24 AM 35.2694 -106.8483 149° Southeast 215 247 12,100 -968 Descending Albuquerque Center
Wed 11:58:47 AM 35.2572 -106.8386 147° Southeast 214 246 11,900 -984 Descending Albuquerque Center
Wed 11:59:25 AM 35.2181 -106.8094 149° Southeast 217 250 11,100 -1,065 Descending Albuquerque Center
Wed 11:59:49 AM 35.2056 -106.7997 148° Southeast 216 249 10,800 -1,082 Descending Albuquerque Center
Wed 12:00:26 PM 35.1669 -106.7733 151° Southeast 216 249 10,000 -774 Descending Albuquerque Center
Wed 12:00:51 PM 35.1536 -106.7603 141° Southeast 216 249 10,000 -600 Level Albuquerque Center
Wed 12:01:26 PM 35.1183 -106.7392 154° Southeast 201 231 9,400 -871 Descending Albuquerque Center
Wed 12:01:53 PM 35.1058 -106.7311 152° Southeast 194 223 9,100 -1,180 Descending Albuquerque Center
Wed 12:02:27 PM 35.0717 -106.7278 175° South 155 178 8,200 -1,161 Descending Albuquerque Center
Wed 12:02:55 PM 35.0600 -106.7269 177° South 174 200 7,900 -787 Descending Albuquerque Center
Wed 12:03:28 PM 35.0289 -106.7153 163° South 156 180 7,400 -871 Descending Albuquerque Center
Wed 12:03:57 PM 35.0197 -106.6928 116° Southeast 166 191 7,000 -1,167 Descending Albuquerque Center
Wed 12:04:40 PM 35.0103 -106.6578 108° East 150 173 6,000 -1,161 Descending Albuquerque Center
Wed 12:04:59 PM 35.0111 -106.6456 85° East 154 177 5,800 -519 Descending Albuquerque Center
Wed 12:06:01 PM 35.0311 -106.6194 47° Northeast 122 140 5,300 -484 Descending Albuquerque Center

Login

Don't have an account? Register now (free) for customized features, flight alerts, and more!